Time;durP1;ratioP1;P1;durP2;ratioP2;P2;SDS_P1;SDS_P2;PMS_P1;PMS_P2;Temp;Humidity;BMP_temperature;BMP_pressure;BME280_temperature;BME280_humidity;BME280_pressure;Samples;Min_cycle;Max_cycle;Signal;HPM_P1;HPM_P2
2022/04/06 19:39:44;;;;;;;20.67;17.20;;;;;;;;;;4905679;29;20060;-89
2022/04/06 19:42:22;;;;;;;19.35;16.38;;;;;;;;;;4885927;29;20699;-92
2022/04/06 19:44:58;;;;;;;19.98;16.50;;;;;;;;;;4888898;29;20045;-89
2022/04/06 19:47:28;;;;;;;16.98;14.32;;;;;;;;;;4876987;29;20043;-90
2022/04/06 19:50:03;;;;;;;18.27;15.25;;;;;;;;;;4865757;29;20032;-91
2022/04/06 19:52:32;;;;;;;18.40;15.77;;;;;;;;;;4876829;29;20040;-91
2022/04/06 19:55:14;;;;;;;17.05;15.25;;;;;;;;;;4884733;29;20488;-92
2022/04/06 19:57:53;;;;;;;19.25;16.50;;;;;;;;;;4896645;29;20048;-90
2022/04/06 20:00:30;;;;;;;18.77;14.02;;;;;;;;;;4895106;29;20043;-93
2022/04/06 20:03:11;;;;;;;14.38;12.82;;;;;;;;;;4867296;29;20047;-90
2022/04/06 20:05:40;;;;;;;18.10;13.65;;;;;;;;;;4865303;29;20477;-90
2022/04/06 20:08:10;;;;;;;15.48;13.85;;;;;;;;;;4890479;29;20096;-90
2022/04/06 20:10:48;;;;;;;14.15;12.18;;;;;;;;;;4894063;29;20045;-92
2022/04/06 20:13:17;;;;;;;16.33;12.18;;;;;;;;;;4877134;29;20133;-93
2022/04/06 20:15:52;;;;;;;15.25;13.65;;;;;;;;;;4873872;29;20568;-91
2022/04/06 20:18:34;;;;;;;;;;;;;;;;;;;;;
2022/04/06 20:21:11;;;;;;;13.60;11.32;;;;;;;;;;4881446;29;20505;-93
2022/04/06 20:23:47;;;;;;;13.63;12.13;;;;;;;;;;4874072;29;20044;-93
2022/04/06 20:26:21;;;;;;;14.57;12.20;;;;;;;;;;4879404;29;20544;-93
2022/04/06 20:28:47;;;;;;;11.88;10.40;;;;;;;;;;4876822;29;20135;-91
2022/04/06 20:31:14;;;;;;;13.30;11.25;;;;;;;;;;4880351;29;20032;-93
2022/04/06 20:33:54;;;;;;;11.98;9.98;;;;;;;;;;4882446;29;20096;-91
2022/04/06 20:36:22;;;;;;;11.20;10.05;;;;;;;;;;4884944;29;20122;-90
2022/04/06 20:38:52;;;;;;;12.88;11.48;;;;;;;;;;4876641;29;20127;-90
2022/04/06 20:41:26;;;;;;;11.35;10.05;;;;;;;;;;4881070;29;20048;-92
2022/04/06 20:44:00;;;;;;;14.02;10.05;;;;;;;;;;4869029;29;20048;-92
2022/04/06 20:46:47;;;;;;;11.80;9.82;;;;;;;;;;4891069;29;20048;-92
2022/04/06 20:49:13;;;;;;;12.40;10.40;;;;;;;;;;4882126;29;20189;-91
2022/04/06 20:51:46;;;;;;;12.80;11.10;;;;;;;;;;4897069;29;20490;-91
2022/04/06 20:54:18;;;;;;;10.68;9.18;;;;;;;;;;4878874;29;20052;-92
2022/04/06 20:56:44;;;;;;;13.95;10.13;;;;;;;;;;4878277;29;20469;-91
2022/04/06 20:59:14;;;;;;;10.40;9.38;;;;;;;;;;4886385;29;20059;-92
2022/04/06 21:01:44;;;;;;;10.95;9.15;;;;;;;;;;4884383;29;20052;-94
2022/04/06 21:04:16;;;;;;;11.63;10.07;;;;;;;;;;4879841;29;20267;-91
2022/04/06 21:06:51;;;;;;;10.05;8.23;;;;;;;;;;4888729;29;20079;-92
2022/04/06 21:09:18;;;;;;;10.43;9.32;;;;;;;;;;4884870;29;20032;-90
2022/04/06 21:11:44;;;;;;;10.65;8.32;;;;;;;;;;4885781;29;20040;-92
2022/04/06 21:14:13;;;;;;;11.80;9.55;;;;;;;;;;4880805;29;20394;-93
2022/04/06 21:16:41;;;;;;;10.68;9.40;;;;;;;;;;4882109;29;20036;-91
2022/04/06 21:19:20;;;;;;;10.60;8.43;;;;;;;;;;4883257;29;20055;-91
2022/04/06 21:21:52;;;;;;;8.88;7.97;;;;;;;;;;4879011;29;20040;-91
2022/04/06 21:24:21;;;;;;;9.32;8.43;;;;;;;;;;4880369;29;20386;-91
2022/04/06 21:26:52;;;;;;;12.15;8.50;;;;;;;;;;4883720;29;20126;-91
2022/04/06 21:29:24;;;;;;;9.90;8.10;;;;;;;;;;4871472;29;20512;-92
2022/04/06 21:32:06;;;;;;;10.25;8.85;;;;;;;;;;4868779;29;21133;-94
2022/04/06 21:34:32;;;;;;;8.68;6.88;;;;;;;;;;4873819;29;20107;-90
2022/04/06 21:36:58;;;;;;;10.63;8.00;;;;;;;;;;4878443;29;20485;-91
2022/04/06 21:39:24;;;;;;;9.63;8.63;;;;;;;;;;4871388;29;20040;-90
2022/04/06 21:41:52;;;;;;;11.40;8.20;;;;;;;;;;4890227;29;20071;-91
2022/04/06 21:44:25;;;;;;;14.25;9.18;;;;;;;;;;4866803;29;20044;-93
2022/04/06 21:46:54;;;;;;;11.50;8.60;;;;;;;;;;4883849;29;20044;-91
2022/04/06 21:49:23;;;;;;;11.52;8.85;;;;;;;;;;4881634;29;20121;-93
2022/04/06 21:51:49;;;;;;;11.73;9.15;;;;;;;;;;4877907;29;20043;-92
2022/04/06 21:54:21;;;;;;;11.43;8.20;;;;;;;;;;4888816;29;20551;-91
2022/04/06 21:56:47;;;;;;;13.25;9.15;;;;;;;;;;4891996;29;20057;-92
2022/04/06 21:59:20;;;;;;;16.67;9.43;;;;;;;;;;4883125;29;20043;-91
2022/04/06 22:01:53;;;;;;;10.98;8.32;;;;;;;;;;4882655;29;20040;-92
2022/04/06 22:04:22;;;;;;;11.50;7.43;;;;;;;;;;4877384;29;20036;-90
2022/04/06 22:07:04;;;;;;;10.75;8.00;;;;;;;;;;4879032;29;20032;-92
2022/04/06 22:09:30;;;;;;;16.02;8.85;;;;;;;;;;4888026;29;20040;-91
2022/04/06 22:11:57;;;;;;;15.57;9.48;;;;;;;;;;4876941;29;20172;-91
2022/04/06 22:14:34;;;;;;;14.50;9.85;;;;;;;;;;4876516;29;20110;-92
2022/04/06 22:17:22;;;;;;;13.95;9.02;;;;;;;;;;4888528;29;20461;-92
2022/04/06 22:19:49;;;;;;;12.90;8.65;;;;;;;;;;4875611;29;20130;-91
2022/04/06 22:22:15;;;;;;;15.88;9.02;;;;;;;;;;4863009;29;20099;-90
2022/04/06 22:24:43;;;;;;;13.35;9.80;;;;;;;;;;4888027;29;20439;-90
2022/04/06 22:27:13;;;;;;;13.57;9.33;;;;;;;;;;4888753;29;20548;-92
2022/04/06 22:29:43;;;;;;;11.02;8.10;;;;;;;;;;4876689;29;20047;-92
2022/04/06 22:32:10;;;;;;;14.63;8.40;;;;;;;;;;4874090;29;20036;-91
2022/04/06 22:34:51;;;;;;;13.35;8.32;;;;;;;;;;4880741;29;20040;-91
2022/04/06 22:37:20;;;;;;;15.25;8.38;;;;;;;;;;4872254;29;20044;-92
2022/04/06 22:39:49;;;;;;;11.38;6.60;;;;;;;;;;4878247;29;20040;-91
2022/04/06 22:42:16;;;;;;;12.70;7.32;;;;;;;;;;4879248;29;20714;-90
2022/04/06 22:44:45;;;;;;;10.02;6.35;;;;;;;;;;4874994;29;20093;-90
2022/04/06 22:47:12;;;;;;;14.55;7.45;;;;;;;;;;4890280;29;20036;-90
2022/04/06 22:49:38;;;;;;;11.10;7.88;;;;;;;;;;4883523;29;20036;-90
2022/04/06 22:52:13;;;;;;;14.55;7.80;;;;;;;;;;4874939;29;20087;-91
2022/04/06 22:54:40;;;;;;;12.00;9.05;;;;;;;;;;4880980;29;20059;-91
2022/04/06 22:57:16;;;;;;;;;;;;;;;;;;;;;
2022/04/06 22:59:51;;;;;;;11.95;8.05;;;;;;;;;;4893095;29;20127;-91
2022/04/06 23:02:21;;;;;;;13.13;8.00;;;;;;;;;;4878392;29;20131;-90
2022/04/06 23:04:47;;;;;;;10.18;8.63;;;;;;;;;;4863555;29;20040;-91
2022/04/06 23:07:39;;;;;;;10.88;8.32;;;;;;;;;;4878752;29;20075;-93
2022/04/06 23:10:08;;;;;;;11.60;9.65;;;;;;;;;;4881800;29;20143;-92
2022/04/06 23:12:37;;;;;;;10.90;8.88;;;;;;;;;;4902842;29;20506;-92
2022/04/06 23:15:09;;;;;;;15.00;9.95;;;;;;;;;;4878096;29;20048;-91
2022/04/06 23:17:36;;;;;;;10.93;9.40;;;;;;;;;;4873559;29;20531;-92
2022/04/06 23:20:03;;;;;;;13.65;10.23;;;;;;;;;;4876582;29;20044;-92
2022/04/06 23:22:29;;;;;;;17.13;11.07;;;;;;;;;;4881244;29;20052;-89
2022/04/06 23:24:56;;;;;;;13.90;10.07;;;;;;;;;;4883247;29;20430;-92
2022/04/06 23:27:29;;;;;;;12.55;9.65;;;;;;;;;;4872835;29;20677;-91
2022/04/06 23:29:58;;;;;;;16.73;10.95;;;;;;;;;;4878295;29;20044;-93
2022/04/06 23:32:27;;;;;;;16.70;9.77;;;;;;;;;;4890458;29;20068;-92
2022/04/06 23:34:53;;;;;;;12.82;9.70;;;;;;;;;;4863762;29;20482;-93
2022/04/06 23:37:20;;;;;;;13.32;10.38;;;;;;;;;;4877853;29;20048;-92
2022/04/06 23:39:46;;;;;;;14.15;9.82;;;;;;;;;;4878018;29;20696;-91
2022/04/06 23:42:15;;;;;;;10.73;8.07;;;;;;;;;;4874947;29;20036;-91
2022/04/06 23:44:41;;;;;;;10.50;7.38;;;;;;;;;;4893936;29;20048;-91
2022/04/06 23:47:10;;;;;;;9.77;7.47;;;;;;;;;;4891953;29;20036;-92
2022/04/06 23:49:39;;;;;;;16.77;7.80;;;;;;;;;;4877242;29;20441;-92
2022/04/06 23:52:11;;;;;;;9.73;6.50;;;;;;;;;;4878089;29;20123;-92
2022/04/06 23:54:47;;;;;;;11.40;6.80;;;;;;;;;;4876397;29;20133;-92
2022/04/06 23:57:13;;;;;;;12.65;7.15;;;;;;;;;;4873832;29;20072;-91
2022/04/06 23:59:42;;;;;;;10.52;6.72;;;;;;;;;;4875914;29;20094;-93
